createdAt,value
2022-07-29T00:00:03.043Z,4.90
2022-07-29T00:02:33.179Z,4.40
2022-07-29T00:05:00.354Z,4.45
2022-07-29T00:07:27.690Z,4.95
2022-07-29T00:09:54.608Z,3.78
2022-07-29T00:12:25.269Z,5.68
2022-07-29T00:14:55.348Z,5.10
2022-07-29T00:17:23.431Z,5.97
2022-07-29T00:19:50.308Z,4.32
2022-07-29T00:22:17.235Z,4.10
2022-07-29T00:24:44.144Z,4.20
2022-07-29T00:27:11.041Z,3.72
2022-07-29T00:29:37.863Z,4.85
2022-07-29T00:32:04.907Z,4.07
2022-07-29T00:34:51.139Z,4.05
2022-07-29T00:37:17.989Z,4.10
2022-07-29T00:39:44.814Z,4.57
2022-07-29T00:42:11.747Z,4.82
2022-07-29T00:44:40.515Z,4.75
2022-07-29T00:47:08.456Z,4.82
2022-07-29T00:49:36.001Z,5.60
2022-07-29T00:52:04.890Z,3.78
2022-07-29T00:54:31.964Z,4.10
2022-07-29T00:57:02.252Z,3.50
2022-07-29T00:59:34.437Z,4.88
2022-07-29T01:02:04.150Z,3.05
2022-07-29T01:04:32.439Z,3.92
2022-07-29T01:07:01.281Z,5.60
2022-07-29T01:09:36.012Z,3.47
2022-07-29T01:12:19.873Z,3.50
2022-07-29T01:14:48.804Z,3.83
2022-07-29T01:17:24.282Z,5.03
2022-07-29T01:20:00.671Z,7.22
2022-07-29T01:22:52.692Z,4.90
2022-07-29T01:25:56.175Z,6.63
2022-07-29T01:28:50.278Z,5.10
2022-07-29T01:31:25.159Z,4.38
2022-07-29T01:34:03.269Z,3.45
2022-07-29T01:36:36.156Z,5.32
2022-07-29T01:39:31.027Z,4.20
2022-07-29T01:42:45.053Z,4.63
2022-07-29T01:45:18.193Z,4.78
2022-07-29T01:47:51.717Z,4.50
2022-07-29T01:50:22.314Z,4.72
2022-07-29T01:53:01.366Z,4.55
2022-07-29T01:55:32.087Z,3.95
2022-07-29T01:58:00.200Z,4.68
2022-07-29T02:00:28.578Z,5.30
2022-07-29T02:02:57.111Z,6.07
2022-07-29T02:05:28.290Z,6.18
2022-07-29T02:07:56.839Z,5.22
2022-07-29T02:10:26.360Z,4.07
2022-07-29T02:12:56.097Z,5.25
2022-07-29T02:15:25.337Z,3.40
2022-07-29T02:17:59.248Z,4.05
2022-07-29T02:20:27.608Z,3.47
2022-07-29T02:22:56.598Z,4.82
2022-07-29T02:25:25.437Z,3.72
2022-07-29T02:28:07.640Z,7.93
2022-07-29T02:30:38.980Z,4.07
2022-07-29T02:33:08.819Z,4.53
2022-07-29T02:35:35.863Z,6.30
2022-07-29T02:38:22.811Z,4.43
2022-07-29T02:40:51.602Z,4.78
2022-07-29T02:43:19.953Z,4.68
2022-07-29T02:45:52.045Z,4.95
2022-07-29T02:48:23.521Z,4.43
2022-07-29T02:50:56.607Z,3.50
2022-07-29T02:53:29.550Z,3.60
2022-07-29T02:56:07.842Z,6.25
2022-07-29T02:58:43.592Z,4.15
2022-07-29T03:01:21.987Z,3.95
2022-07-29T03:03:51.803Z,3.58
2022-07-29T03:06:30.904Z,3.65
2022-07-29T03:09:12.893Z,4.05
2022-07-29T03:11:49.452Z,5.22
2022-07-29T03:14:21.614Z,3.80
2022-07-29T03:16:49.934Z,5.15
2022-07-29T03:19:18.242Z,3.70
2022-07-29T03:21:45.078Z,5.60
2022-07-29T03:24:24.872Z,3.35
2022-07-29T03:26:51.894Z,5.68
2022-07-29T03:29:18.691Z,4.80
2022-07-29T03:31:46.988Z,4.07
2022-07-29T03:34:15.646Z,5.65
2022-07-29T03:36:42.778Z,5.28
2022-07-29T03:39:11.626Z,6.15
2022-07-29T03:41:40.471Z,5.53
2022-07-29T03:44:08.817Z,4.35
2022-07-29T03:46:38.255Z,4.40
2022-07-29T03:49:06.058Z,4.07
2022-07-29T03:51:33.694Z,6.13
2022-07-29T03:54:07.880Z,4.55
2022-07-29T03:56:40.841Z,5.18
2022-07-29T03:59:08.691Z,7.07
2022-07-29T04:01:37.437Z,4.85
2022-07-29T04:04:05.639Z,4.95
2022-07-29T04:06:44.482Z,4.65
2022-07-29T04:09:13.132Z,4.70
2022-07-29T04:12:01.510Z,3.78
2022-07-29T04:14:28.703Z,4.68
2022-07-29T04:16:56.258Z,5.50
2022-07-29T04:19:23.577Z,6.05
2022-07-29T04:21:50.534Z,4.53
2022-07-29T04:24:18.175Z,4.22
2022-07-29T04:26:47.848Z,3.97
2022-07-29T04:29:15.368Z,6.22
2022-07-29T04:31:43.469Z,5.05
2022-07-29T04:34:11.364Z,6.43
2022-07-29T04:36:38.332Z,4.07
2022-07-29T04:39:05.597Z,4.65
2022-07-29T04:41:33.723Z,6.80
2022-07-29T04:44:07.155Z,5.53
2022-07-29T04:46:35.696Z,6.88
2022-07-29T04:49:04.058Z,4.85
2022-07-29T04:51:31.092Z,4.18
2022-07-29T04:53:57.905Z,4.47
2022-07-29T04:56:25.001Z,8.05
2022-07-29T04:58:52.163Z,4.60
2022-07-29T05:01:19.319Z,6.15
2022-07-29T05:03:46.506Z,3.80
2022-07-29T05:06:13.382Z,5.30
2022-07-29T05:08:41.889Z,4.45
2022-07-29T05:11:12.224Z,7.22
2022-07-29T05:13:46.167Z,6.70
2022-07-29T05:16:14.817Z,4.75
2022-07-29T05:18:42.361Z,6.32
2022-07-29T05:21:09.185Z,3.65
2022-07-29T05:23:36.057Z,6.05
2022-07-29T05:26:03.016Z,5.00
2022-07-29T05:28:29.931Z,6.50
2022-07-29T05:30:57.408Z,3.70
2022-07-29T05:33:35.514Z,4.63
2022-07-29T05:36:07.881Z,4.32
2022-07-29T05:38:38.420Z,4.15
2022-07-29T05:41:06.161Z,5.82
2022-07-29T05:43:33.514Z,6.13
2022-07-29T05:46:00.531Z,5.45
2022-07-29T05:48:27.679Z,7.05
2022-07-29T05:50:54.745Z,4.15
2022-07-29T05:53:21.827Z,4.53
2022-07-29T05:55:49.806Z,5.22
2022-07-29T05:58:16.935Z,6.70
2022-07-29T06:00:43.779Z,6.63
2022-07-29T06:03:10.782Z,4.38
2022-07-29T06:05:37.839Z,5.75
2022-07-29T06:08:08.087Z,5.88
2022-07-29T06:10:38.615Z,4.68
2022-07-29T06:13:05.662Z,5.85
2022-07-29T06:15:32.720Z,5.20
2022-07-29T06:18:01.195Z,4.32
2022-07-29T06:20:32.704Z,6.90
2022-07-29T06:23:00.616Z,5.32
2022-07-29T06:25:30.433Z,5.05
2022-07-29T06:27:58.486Z,5.70
2022-07-29T06:30:25.500Z,4.20
2022-07-29T06:32:52.766Z,4.10
2022-07-29T06:35:38.783Z,6.82
2022-07-29T06:38:09.601Z,4.35
2022-07-29T06:41:08.580Z,7.43
2022-07-29T06:43:52.556Z,6.15
2022-07-29T06:46:23.111Z,6.60
2022-07-29T06:48:51.660Z,5.20
2022-07-29T06:51:21.723Z,6.30
2022-07-29T06:53:58.196Z,5.70
2022-07-29T06:56:27.637Z,4.00
2022-07-29T06:58:54.537Z,4.97
2022-07-29T07:01:21.855Z,5.35
2022-07-29T07:03:48.921Z,4.00
2022-07-29T07:06:15.876Z,4.00
2022-07-29T07:08:42.684Z,6.40
2022-07-29T07:11:09.793Z,5.55
2022-07-29T07:13:37.041Z,4.05
2022-07-29T07:16:04.612Z,7.22
2022-07-29T07:18:31.749Z,7.45
2022-07-29T07:20:59.440Z,7.20
2022-07-29T07:23:26.335Z,5.07
2022-07-29T07:25:53.342Z,4.22
2022-07-29T07:28:24.674Z,4.65
2022-07-29T07:30:52.842Z,5.13
2022-07-29T07:33:20.464Z,4.65
2022-07-29T07:35:47.716Z,5.00
2022-07-29T07:38:14.580Z,4.43
2022-07-29T07:40:42.485Z,4.70
2022-07-29T07:43:09.428Z,4.45
2022-07-29T07:45:38.363Z,6.50
2022-07-29T07:48:05.996Z,4.38
2022-07-29T07:50:33.340Z,5.57
2022-07-29T07:53:00.652Z,4.72
2022-07-29T07:55:27.731Z,4.68
2022-07-29T07:57:55.758Z,5.30
2022-07-29T08:00:23.745Z,6.90
2022-07-29T08:02:51.743Z,6.65
2022-07-29T08:05:19.307Z,5.13
2022-07-29T08:07:47.690Z,7.10
2022-07-29T08:10:38.086Z,6.00
2022-07-29T08:13:06.427Z,5.63
2022-07-29T08:15:33.907Z,6.65
2022-07-29T08:18:06.530Z,6.40
2022-07-29T08:20:36.725Z,5.35
2022-07-29T08:23:05.429Z,7.97
2022-07-29T08:25:32.861Z,5.53
2022-07-29T08:28:01.582Z,5.53
2022-07-29T08:30:28.699Z,5.20
2022-07-29T08:32:56.294Z,5.85
2022-07-29T08:35:25.208Z,5.82
2022-07-29T08:37:53.051Z,5.75
2022-07-29T08:40:32.583Z,6.38
2022-07-29T08:43:10.070Z,6.53
2022-07-29T08:45:48.830Z,6.03
2022-07-29T08:48:21.221Z,6.38
2022-07-29T08:50:52.220Z,6.85
2022-07-29T08:53:19.596Z,6.75
2022-07-29T08:55:48.903Z,7.30
2022-07-29T08:58:17.005Z,7.78
2022-07-29T09:00:51.635Z,8.25
2022-07-29T09:03:21.732Z,8.02
2022-07-29T09:05:49.071Z,7.20
2022-07-29T09:08:17.716Z,8.75
2022-07-29T09:10:45.471Z,8.10
2022-07-29T09:13:12.480Z,8.38
2022-07-29T09:15:39.531Z,7.55
2022-07-29T09:18:06.332Z,8.10
2022-07-29T09:20:51.766Z,8.50
2022-07-29T09:23:24.240Z,7.88
2022-07-29T09:25:51.803Z,8.80
2022-07-29T09:28:19.212Z,8.00
2022-07-29T09:31:00.066Z,9.68
2022-07-29T09:33:35.653Z,8.35
2022-07-29T09:36:12.842Z,8.82
2022-07-29T09:38:39.632Z,9.52
2022-07-29T09:41:09.023Z,12.13
2022-07-29T09:43:35.919Z,10.60
2022-07-29T09:46:13.201Z,10.50
2022-07-29T09:48:42.729Z,10.88
2022-07-29T09:51:23.026Z,10.52
2022-07-29T09:53:53.722Z,10.65
2022-07-29T09:56:20.634Z,11.80
2022-07-29T09:58:47.458Z,10.50
2022-07-29T10:01:15.113Z,11.25
2022-07-29T10:03:52.850Z,11.80
2022-07-29T10:06:19.770Z,12.45
2022-07-29T10:08:47.592Z,11.70
2022-07-29T10:11:16.481Z,12.15
2022-07-29T10:13:45.539Z,12.93
2022-07-29T10:16:13.861Z,12.10
2022-07-29T10:18:43.330Z,12.23
2022-07-29T10:21:11.119Z,12.10
2022-07-29T10:23:50.317Z,12.45
2022-07-29T10:26:18.013Z,12.60
2022-07-29T10:28:45.493Z,12.30
2022-07-29T10:31:21.732Z,11.90
2022-07-29T10:34:24.373Z,12.50
2022-07-29T10:37:11.446Z,12.13
2022-07-29T10:40:25.842Z,11.93
2022-07-29T10:42:56.870Z,12.63
2022-07-29T10:45:24.944Z,12.63
2022-07-29T10:48:05.538Z,11.98
2022-07-29T10:51:04.629Z,11.88
2022-07-29T10:53:50.162Z,12.23
2022-07-29T10:56:34.308Z,12.27
2022-07-29T10:59:27.116Z,13.20
2022-07-29T11:02:35.363Z,11.43
2022-07-29T11:04:50.412Z,12.20
2022-07-29T11:07:17.471Z,12.90
2022-07-29T11:09:46.510Z,12.15
2022-07-29T11:12:39.362Z,12.30
2022-07-29T11:15:09.707Z,12.32
2022-07-29T11:17:54.904Z,12.50
2022-07-29T11:20:36.594Z,12.40
2022-07-29T11:23:25.237Z,12.35
2022-07-29T11:26:14.401Z,12.88
2022-07-29T11:28:53.200Z,13.15
2022-07-29T11:31:33.613Z,12.35
2022-07-29T11:34:20.930Z,12.98
2022-07-29T11:37:06.399Z,12.30
2022-07-29T11:39:36.587Z,12.98
2022-07-29T11:42:32.614Z,13.13
2022-07-29T11:45:43.923Z,12.60
2022-07-29T11:48:29.566Z,12.32
2022-07-29T11:50:59.965Z,12.43
2022-07-29T11:53:28.906Z,13.02
2022-07-29T11:56:00.605Z,12.55
2022-07-29T11:58:29.509Z,12.40
2022-07-29T12:00:57.792Z,13.30
2022-07-29T12:03:33.020Z,12.73
2022-07-29T12:06:03.187Z,14.02
2022-07-29T12:08:30.806Z,13.63
2022-07-29T12:10:58.594Z,14.13
2022-07-29T12:13:37.564Z,13.68
2022-07-29T12:16:05.492Z,14.05
2022-07-29T12:18:33.227Z,13.10
2022-07-29T12:21:05.204Z,13.65
2022-07-29T12:23:35.627Z,13.45
2022-07-29T12:26:07.637Z,13.63
2022-07-29T12:28:39.824Z,12.73
2022-07-29T12:31:13.885Z,12.95
2022-07-29T12:33:40.935Z,13.15
2022-07-29T12:36:12.994Z,13.43
2022-07-29T12:38:44.315Z,13.02
2022-07-29T12:41:11.907Z,12.55
2022-07-29T12:43:53.602Z,12.85
2022-07-29T12:46:20.599Z,13.68
2022-07-29T12:48:55.665Z,12.55
2022-07-29T12:51:32.424Z,12.73
2022-07-29T12:54:16.816Z,12.25
2022-07-29T12:56:45.653Z,12.63
2022-07-29T12:59:23.946Z,13.18
2022-07-29T13:01:53.138Z,12.77
2022-07-29T13:04:27.474Z,12.77
2022-07-29T13:07:07.488Z,11.73
2022-07-29T13:09:43.131Z,12.25
2022-07-29T13:12:11.853Z,11.45
2022-07-29T13:14:49.603Z,11.82
2022-07-29T13:17:17.456Z,11.57
2022-07-29T13:19:47.744Z,10.90
2022-07-29T13:22:16.929Z,10.82
2022-07-29T13:24:50.850Z,10.73
2022-07-29T13:27:19.429Z,10.18
2022-07-29T13:29:47.436Z,10.52
2022-07-29T13:32:14.556Z,11.73
2022-07-29T13:34:41.895Z,11.13
2022-07-29T13:37:08.864Z,10.52
2022-07-29T13:39:35.825Z,10.38
2022-07-29T13:42:02.880Z,10.77
2022-07-29T13:44:29.711Z,12.45
2022-07-29T13:46:57.014Z,12.80
2022-07-29T13:49:23.981Z,11.32
2022-07-29T13:51:51.053Z,11.43
2022-07-29T13:54:17.897Z,11.30
2022-07-29T13:56:44.692Z,11.32
2022-07-29T13:59:14.023Z,10.70
2022-07-29T14:01:43.194Z,12.40
2022-07-29T14:04:14.348Z,11.32
2022-07-29T14:06:41.915Z,11.52
2022-07-29T14:09:11.729Z,11.55
2022-07-29T14:11:39.461Z,11.38
2022-07-29T14:14:06.414Z,11.13
2022-07-29T14:16:33.313Z,11.23
2022-07-29T14:19:00.813Z,12.10
2022-07-29T14:21:27.768Z,12.05
2022-07-29T14:23:55.615Z,11.63
2022-07-29T14:26:24.391Z,11.25
2022-07-29T14:28:51.366Z,11.23
2022-07-29T14:31:18.360Z,11.38
2022-07-29T14:33:46.207Z,10.68
2022-07-29T14:36:16.157Z,11.38
2022-07-29T14:38:42.989Z,11.13
2022-07-29T14:41:10.096Z,10.68
2022-07-29T14:43:37.297Z,11.75
2022-07-29T14:46:08.335Z,11.18
2022-07-29T14:48:36.053Z,10.80
2022-07-29T14:51:04.952Z,10.38
2022-07-29T14:53:32.351Z,9.70
2022-07-29T14:56:10.383Z,10.35
2022-07-29T14:58:50.160Z,10.85
2022-07-29T15:01:19.500Z,11.20
2022-07-29T15:03:46.797Z,11.00
2022-07-29T15:06:13.607Z,10.18
2022-07-29T15:08:40.530Z,10.25
2022-07-29T15:11:07.352Z,10.85
2022-07-29T15:13:34.722Z,11.25
2022-07-29T15:16:01.787Z,10.80
2022-07-29T15:18:28.746Z,11.65
2022-07-29T15:20:55.585Z,11.40
2022-07-29T15:23:22.468Z,11.00
2022-07-29T15:25:49.277Z,11.45
2022-07-29T15:28:16.242Z,12.02
2022-07-29T15:30:43.156Z,11.75
2022-07-29T15:33:10.632Z,11.88
2022-07-29T15:35:40.268Z,11.57
2022-07-29T15:38:08.760Z,11.73
2022-07-29T15:40:37.215Z,11.65
2022-07-29T15:43:07.250Z,11.70
2022-07-29T15:46:06.576Z,11.65
2022-07-29T15:48:33.575Z,11.80
2022-07-29T15:51:01.019Z,11.48
2022-07-29T15:53:28.003Z,11.18
2022-07-29T15:55:54.935Z,10.88
2022-07-29T15:58:22.696Z,12.40
2022-07-29T16:00:50.124Z,11.40
2022-07-29T16:03:17.342Z,10.85
2022-07-29T16:05:44.249Z,11.13
2022-07-29T16:08:11.242Z,10.55
2022-07-29T16:10:38.112Z,10.63
2022-07-29T16:13:04.993Z,10.35
2022-07-29T16:15:31.877Z,10.68
2022-07-29T16:17:58.800Z,9.82
2022-07-29T16:20:25.786Z,10.18
2022-07-29T16:22:53.362Z,10.18
2022-07-29T16:25:20.443Z,10.77
2022-07-29T16:27:47.288Z,11.05
2022-07-29T16:30:14.140Z,11.13
2022-07-29T16:32:41.273Z,11.57
2022-07-29T16:35:08.823Z,11.38
2022-07-29T16:37:37.184Z,10.82
2022-07-29T16:40:06.266Z,11.15
2022-07-29T16:42:48.652Z,11.93
2022-07-29T16:45:17.997Z,11.52
2022-07-29T16:47:47.247Z,11.77
2022-07-29T16:50:14.276Z,10.98
2022-07-29T16:52:41.320Z,11.68
2022-07-29T16:55:08.344Z,11.50
2022-07-29T16:57:35.222Z,11.60
2022-07-29T17:00:02.250Z,11.30
2022-07-29T17:02:29.150Z,11.90
2022-07-29T17:04:56.342Z,10.98
2022-07-29T17:07:23.660Z,10.85
2022-07-29T17:09:55.114Z,10.80
2022-07-29T17:12:22.532Z,11.20
2022-07-29T17:14:49.398Z,11.32
2022-07-29T17:17:20.884Z,11.00
2022-07-29T17:20:05.248Z,11.13
2022-07-29T17:22:32.233Z,10.95
2022-07-29T17:24:59.167Z,10.60
2022-07-29T17:27:27.735Z,11.40
2022-07-29T17:29:54.569Z,11.13
2022-07-29T17:32:22.085Z,11.55
2022-07-29T17:34:48.998Z,12.13
2022-07-29T17:37:15.943Z,11.45
2022-07-29T17:39:43.112Z,11.35
2022-07-29T17:42:11.973Z,10.95
2022-07-29T17:44:39.508Z,12.27
2022-07-29T17:47:07.910Z,11.18
2022-07-29T17:49:42.393Z,11.02
2022-07-29T17:52:09.380Z,9.98
2022-07-29T17:54:36.299Z,9.98
2022-07-29T17:57:03.191Z,10.38
2022-07-29T17:59:30.013Z,11.43
2022-07-29T18:01:56.918Z,11.00
2022-07-29T18:04:23.891Z,11.20
2022-07-29T18:06:51.508Z,10.23
2022-07-29T18:09:18.500Z,12.30
2022-07-29T18:11:46.246Z,9.55
2022-07-29T18:14:13.543Z,10.88
2022-07-29T18:16:40.810Z,9.90
2022-07-29T18:19:07.799Z,10.48
2022-07-29T18:21:42.667Z,10.93
2022-07-29T18:24:22.592Z,10.52
2022-07-29T18:26:49.401Z,10.15
2022-07-29T18:29:16.256Z,10.68
2022-07-29T18:31:43.077Z,10.20
2022-07-29T18:34:09.941Z,11.13
2022-07-29T18:36:37.179Z,11.75
2022-07-29T18:39:04.084Z,11.18
2022-07-29T18:41:31.363Z,10.70
2022-07-29T18:43:58.217Z,11.20
2022-07-29T18:46:25.488Z,12.48
2022-07-29T18:48:52.654Z,11.30
2022-07-29T18:51:19.861Z,11.75
2022-07-29T18:53:46.847Z,12.18
2022-07-29T18:56:13.708Z,12.05
2022-07-29T18:58:40.625Z,13.18
2022-07-29T19:01:07.539Z,11.88
2022-07-29T19:03:34.642Z,11.55
2022-07-29T19:06:01.497Z,11.05
2022-07-29T19:08:28.333Z,10.38
2022-07-29T19:10:55.277Z,11.15
2022-07-29T19:13:22.350Z,10.70
2022-07-29T19:15:49.227Z,10.95
2022-07-29T19:18:16.178Z,12.73
2022-07-29T19:20:43.053Z,12.50
2022-07-29T19:23:09.945Z,12.52
2022-07-29T19:25:37.574Z,12.52
2022-07-29T19:28:20.407Z,12.70
2022-07-29T19:30:47.295Z,12.75
2022-07-29T19:33:17.380Z,13.43
2022-07-29T19:35:45.302Z,13.02
2022-07-29T19:38:12.570Z,13.20
2022-07-29T19:40:39.408Z,13.35
2022-07-29T19:43:50.721Z,13.57
2022-07-29T19:45:53.626Z,13.60
2022-07-29T19:48:20.536Z,13.40
2022-07-29T19:50:47.418Z,13.45
2022-07-29T19:53:14.388Z,13.00
2022-07-29T19:55:42.423Z,13.68
2022-07-29T19:58:09.311Z,13.63
2022-07-29T20:00:36.181Z,12.77
2022-07-29T20:03:04.772Z,12.20
2022-07-29T20:05:31.809Z,12.02
2022-07-29T20:07:58.743Z,11.30
2022-07-29T20:10:25.791Z,12.20
2022-07-29T20:12:53.840Z,11.18
2022-07-29T20:15:22.397Z,11.55
2022-07-29T20:17:51.807Z,12.25
2022-07-29T20:20:23.086Z,11.15
2022-07-29T20:22:49.984Z,9.68
2022-07-29T20:25:16.848Z,12.60
2022-07-29T20:27:43.730Z,11.15
2022-07-29T20:30:13.858Z,12.32
2022-07-29T20:32:41.337Z,10.35
2022-07-29T20:35:09.950Z,7.82
2022-07-29T20:37:52.233Z,11.00
2022-07-29T20:40:24.749Z,10.38
2022-07-29T20:42:51.966Z,8.20
2022-07-29T20:45:20.066Z,8.82
2022-07-29T20:47:47.057Z,9.50
2022-07-29T20:50:13.969Z,8.73
2022-07-29T20:52:41.452Z,9.00
2022-07-29T20:55:09.281Z,9.55
2022-07-29T20:57:38.707Z,8.40
2022-07-29T21:00:08.117Z,7.55
2022-07-29T21:02:35.063Z,12.18
2022-07-29T21:05:02.040Z,9.93
2022-07-29T21:07:28.928Z,9.48
2022-07-29T21:09:55.777Z,9.32
2022-07-29T21:12:22.672Z,9.23
2022-07-29T21:14:49.815Z,9.20
2022-07-29T21:17:19.448Z,9.52
2022-07-29T21:19:52.425Z,9.32
2022-07-29T21:22:21.987Z,10.40
2022-07-29T21:24:50.221Z,10.75
2022-07-29T21:27:38.412Z,12.30
2022-07-29T21:30:07.746Z,11.65
2022-07-29T21:32:34.760Z,8.77
2022-07-29T21:35:01.645Z,9.48
2022-07-29T21:37:28.546Z,8.80
2022-07-29T21:39:55.512Z,9.45
2022-07-29T21:42:22.606Z,9.27
2022-07-29T21:44:49.495Z,9.50
2022-07-29T21:47:16.410Z,9.23
2022-07-29T21:49:43.414Z,8.95
2022-07-29T21:52:10.211Z,8.75
2022-07-29T21:54:38.471Z,10.07
2022-07-29T21:57:05.671Z,9.40
2022-07-29T21:59:32.673Z,10.60
2022-07-29T22:02:01.060Z,11.70
2022-07-29T22:04:29.101Z,13.43
2022-07-29T22:06:56.892Z,12.45
2022-07-29T22:09:24.818Z,15.52
2022-07-29T22:11:51.698Z,10.80
2022-07-29T22:14:18.612Z,11.80
2022-07-29T22:16:46.520Z,10.05
2022-07-29T22:19:14.546Z,9.35
2022-07-29T22:21:41.802Z,9.50
2022-07-29T22:24:10.339Z,8.80
2022-07-29T22:26:38.278Z,10.52
2022-07-29T22:29:05.442Z,7.70
2022-07-29T22:31:32.337Z,6.40
2022-07-29T22:33:59.168Z,6.72
2022-07-29T22:36:26.933Z,7.05
2022-07-29T22:38:53.851Z,8.65
2022-07-29T22:41:20.765Z,8.88
2022-07-29T22:43:47.621Z,9.07
2022-07-29T22:46:14.488Z,8.93
2022-07-29T22:48:41.378Z,9.02
2022-07-29T22:51:08.286Z,9.27
2022-07-29T22:53:36.020Z,9.00
2022-07-29T22:56:03.041Z,8.82
2022-07-29T22:58:29.843Z,8.38
2022-07-29T23:00:56.765Z,8.82
2022-07-29T23:03:23.633Z,8.88
2022-07-29T23:05:51.846Z,10.93
2022-07-29T23:08:19.746Z,10.55
2022-07-29T23:10:46.895Z,10.98
2022-07-29T23:13:13.905Z,12.48
2022-07-29T23:15:41.360Z,11.25
2022-07-29T23:18:08.460Z,13.38
2022-07-29T23:20:35.641Z,13.52
2022-07-29T23:23:02.549Z,14.45
2022-07-29T23:25:29.389Z,14.07
2022-07-29T23:27:56.570Z,14.50
2022-07-29T23:30:23.579Z,13.88
2022-07-29T23:32:50.524Z,14.05
2022-07-29T23:35:17.489Z,14.48
2022-07-29T23:37:44.382Z,14.70
2022-07-29T23:40:14.549Z,12.93
2022-07-29T23:42:42.676Z,14.32
2022-07-29T23:45:11.223Z,10.55
2022-07-29T23:47:38.135Z,49.05
2022-07-29T23:50:06.920Z,10.13
2022-07-29T23:52:33.925Z,12.45
2022-07-29T23:55:36.801Z,13.68
2022-07-29T23:57:49.426Z,14.90
